createdAt,value
2019-02-18T00:00:47.322Z,101543.80
2019-02-18T00:01:20.426Z,101543.80
2019-02-18T00:01:53.205Z,101541.10
2019-02-18T00:02:26.000Z,101541.10
2019-02-18T00:02:57.319Z,101537.59
2019-02-18T00:03:28.600Z,101527.08
2019-02-18T00:04:00.020Z,101516.18
2019-02-18T00:04:31.240Z,101516.18
2019-02-18T00:05:02.932Z,101532.92
2019-02-18T00:05:34.268Z,101532.92
2019-02-18T00:06:05.639Z,101515.98
2019-02-18T00:06:37.037Z,101534.01
2019-02-18T00:07:14.388Z,101514.86
2019-02-18T00:07:41.874Z,101514.86
2019-02-18T00:08:13.310Z,101509.29
2019-02-18T00:08:44.614Z,101526.83
2019-02-18T00:09:15.950Z,101529.43
2019-02-18T00:09:47.183Z,101529.43
2019-02-18T00:10:18.561Z,101525.98
2019-02-18T00:10:49.933Z,101511.64
2019-02-18T00:11:21.235Z,101525.66
2019-02-18T00:11:52.507Z,101524.01
2019-02-18T00:12:23.847Z,101527.72
2019-02-18T00:12:55.082Z,101523.62
2019-02-18T00:13:26.340Z,101523.62
2019-02-18T00:13:57.561Z,101519.66
2019-02-18T00:14:28.854Z,101503.69
2019-02-18T00:15:00.320Z,101520.48
2019-02-18T00:15:31.749Z,101518.04
2019-02-18T00:16:03.095Z,101518.04
2019-02-18T00:16:34.430Z,101503.55
2019-02-18T00:17:05.740Z,101515.04
2019-02-18T00:17:37.039Z,101521.16
2019-02-18T00:18:08.291Z,101521.16
2019-02-18T00:18:42.309Z,101530.29
2019-02-18T00:19:14.002Z,101517.30
2019-02-18T00:19:45.375Z,101523.42
2019-02-18T00:20:16.755Z,101523.42
2019-02-18T00:20:47.994Z,101522.11
2019-02-18T00:21:19.422Z,101522.11
2019-02-18T00:21:50.685Z,101532.05
2019-02-18T00:22:22.015Z,101532.05
2019-02-18T00:22:53.384Z,101532.80
2019-02-18T00:23:24.682Z,101530.95
2019-02-18T00:23:56.052Z,101529.14
2019-02-18T00:24:27.314Z,101528.16
2019-02-18T00:24:58.642Z,101515.46
2019-02-18T00:25:29.923Z,101515.46
2019-02-18T00:26:01.207Z,101535.42
2019-02-18T00:26:32.458Z,101533.12
2019-02-18T00:27:03.741Z,101531.91
2019-02-18T00:27:35.081Z,101531.91
2019-02-18T00:28:06.330Z,101506.55
2019-02-18T00:28:37.728Z,101531.77
2019-02-18T00:29:09.050Z,101531.77
2019-02-18T00:29:40.526Z,101520.84
2019-02-18T00:30:11.840Z,101533.47
2019-02-18T00:30:43.286Z,101521.65
2019-02-18T00:31:14.558Z,101513.42
2019-02-18T00:31:45.952Z,101513.42
2019-02-18T00:32:17.256Z,101515.53
2019-02-18T00:32:48.606Z,101536.33
2019-02-18T00:33:19.813Z,101526.22
2019-02-18T00:33:51.199Z,101516.53
2019-02-18T00:34:22.562Z,101531.92
2019-02-18T00:34:54.028Z,101533.28
2019-02-18T00:35:25.389Z,101517.58
2019-02-18T00:35:56.712Z,101532.83
2019-02-18T00:36:28.066Z,101532.33
2019-02-18T00:36:59.446Z,101516.44
2019-02-18T00:37:30.773Z,101516.44
2019-02-18T00:38:02.187Z,101535.90
2019-02-18T00:38:33.533Z,101533.04
2019-02-18T00:39:04.940Z,101521.70
2019-02-18T00:39:37.783Z,101537.95
2019-02-18T00:40:09.229Z,101542.11
2019-02-18T00:40:40.847Z,101514.73
2019-02-18T00:41:12.239Z,101540.89
2019-02-18T00:41:43.526Z,101537.60
2019-02-18T00:42:14.937Z,101524.31
2019-02-18T00:42:46.251Z,101524.31
2019-02-18T00:43:17.659Z,101532.58
2019-02-18T00:43:48.915Z,101528.07
2019-02-18T00:44:20.265Z,101531.98
2019-02-18T00:44:51.673Z,101540.14
2019-02-18T00:45:23.059Z,101536.95
2019-02-18T00:45:54.329Z,101539.30
2019-02-18T00:46:25.690Z,101539.15
2019-02-18T00:46:57.083Z,101538.98
2019-02-18T00:47:28.367Z,101538.98
2019-02-18T00:47:59.645Z,101524.30
2019-02-18T00:48:30.952Z,101540.28
2019-02-18T00:49:02.354Z,101546.70
2019-02-18T00:49:33.690Z,101542.89
2019-02-18T00:50:07.396Z,101542.89
2019-02-18T00:50:38.804Z,101522.48
2019-02-18T00:51:10.038Z,101544.84
2019-02-18T00:51:41.264Z,101544.84
2019-02-18T00:52:12.596Z,101523.23
2019-02-18T00:52:44.027Z,101520.33
2019-02-18T00:53:15.368Z,101534.33
2019-02-18T00:53:46.614Z,101534.33
2019-02-18T00:54:17.909Z,101533.52
2019-02-18T00:54:49.239Z,101533.52
2019-02-18T00:55:20.573Z,101528.55
2019-02-18T00:55:51.856Z,101535.48
2019-02-18T00:56:23.320Z,101538.89
2019-02-18T00:56:54.651Z,101519.84
2019-02-18T00:57:25.963Z,101520.33
2019-02-18T00:57:57.248Z,101520.80
2019-02-18T00:58:28.571Z,101520.80
2019-02-18T00:58:59.875Z,101543.80
2019-02-18T00:59:31.260Z,101543.80
2019-02-18T01:00:07.231Z,101536.28
2019-02-18T01:00:38.901Z,101536.28
2019-02-18T01:01:10.341Z,101513.22
2019-02-18T01:01:42.652Z,101513.22
2019-02-18T01:02:14.012Z,101536.12
2019-02-18T01:02:46.106Z,101532.20
2019-02-18T01:03:17.393Z,101535.13
2019-02-18T01:03:48.692Z,101535.13
2019-02-18T01:04:20.081Z,101533.76
2019-02-18T01:04:51.361Z,101510.91
2019-02-18T01:05:22.631Z,101536.51
2019-02-18T01:05:53.915Z,101536.51
2019-02-18T01:06:25.259Z,101522.06
2019-02-18T01:06:56.579Z,101533.48
2019-02-18T01:07:34.452Z,101535.66
2019-02-18T01:08:01.023Z,101535.66
2019-02-18T01:08:32.432Z,101521.00
2019-02-18T01:09:04.409Z,101521.00
2019-02-18T01:09:35.919Z,101528.09
2019-02-18T01:10:10.622Z,101528.09
2019-02-18T01:10:41.872Z,101528.75
2019-02-18T01:11:13.300Z,101528.75
2019-02-18T01:11:44.663Z,101532.66
2019-02-18T01:12:15.957Z,101532.66
2019-02-18T01:12:47.228Z,101512.85
2019-02-18T01:13:18.590Z,101532.34
2019-02-18T01:13:49.943Z,101525.17
2019-02-18T01:14:21.264Z,101516.73
2019-02-18T01:14:52.481Z,101516.73
2019-02-18T01:15:23.812Z,101512.93
2019-02-18T01:15:55.182Z,101527.27
2019-02-18T01:16:26.637Z,101525.31
2019-02-18T01:16:58.048Z,101527.81
2019-02-18T01:17:29.465Z,101523.05
2019-02-18T01:18:00.731Z,101523.05
2019-02-18T01:18:32.130Z,101529.46
2019-02-18T01:19:03.480Z,101518.05
2019-02-18T01:19:34.922Z,101518.05
2019-02-18T01:20:10.226Z,101528.46
2019-02-18T01:20:41.621Z,101525.13
2019-02-18T01:21:13.065Z,101507.92
2019-02-18T01:21:44.425Z,101507.92
2019-02-18T01:22:15.818Z,101520.56
2019-02-18T01:22:47.199Z,101526.48
2019-02-18T01:23:18.467Z,101519.41
2019-02-18T01:23:49.785Z,101519.41
2019-02-18T01:24:21.212Z,101525.11
2019-02-18T01:24:52.487Z,101521.10
2019-02-18T01:25:23.778Z,101520.04
2019-02-18T01:25:55.118Z,101520.04
2019-02-18T01:26:26.357Z,101519.94
2019-02-18T01:26:57.726Z,101512.23
2019-02-18T01:27:29.095Z,101513.59
2019-02-18T01:28:00.418Z,101513.59
2019-02-18T01:28:31.817Z,101515.00
2019-02-18T01:29:03.201Z,101515.00
2019-02-18T01:29:34.574Z,101501.45
2019-02-18T01:30:11.405Z,101501.45
2019-02-18T01:30:42.724Z,101514.69
2019-02-18T01:31:14.103Z,101512.25
2019-02-18T01:31:45.427Z,101513.55
2019-02-18T01:32:16.683Z,101510.05
2019-02-18T01:32:48.068Z,101508.25
2019-02-18T01:33:19.416Z,101508.25
2019-02-18T01:33:51.780Z,101502.33
2019-02-18T01:34:23.163Z,101490.09
2019-02-18T01:34:54.439Z,101490.09
2019-02-18T01:35:25.809Z,101510.05
2019-02-18T01:35:57.215Z,101510.05
2019-02-18T01:36:28.488Z,101492.10
2019-02-18T01:36:59.894Z,101494.91
2019-02-18T01:37:31.223Z,101509.48
2019-02-18T01:38:02.643Z,101493.80
2019-02-18T01:38:34.030Z,101504.34
2019-02-18T01:39:05.402Z,101508.75
2019-02-18T01:39:36.791Z,101508.75
2019-02-18T01:40:12.756Z,101504.84
2019-02-18T01:40:44.068Z,101505.64
2019-02-18T01:41:15.434Z,101505.64
2019-02-18T01:41:46.855Z,101484.13
2019-02-18T01:42:18.139Z,101509.28
2019-02-18T01:42:49.427Z,101509.28
2019-02-18T01:43:20.656Z,101487.47
2019-02-18T01:43:52.000Z,101498.41
2019-02-18T01:44:23.251Z,101505.22
2019-02-18T01:44:54.531Z,101508.13
2019-02-18T01:45:25.768Z,101502.45
2019-02-18T01:45:57.077Z,101481.91
2019-02-18T01:46:28.418Z,101491.02
2019-02-18T01:46:59.793Z,101491.02
2019-02-18T01:47:31.054Z,101498.34
2019-02-18T01:48:02.418Z,101499.91
2019-02-18T01:48:33.696Z,101503.92
2019-02-18T01:49:05.044Z,101500.41
2019-02-18T01:49:36.372Z,101500.41
2019-02-18T01:50:12.946Z,101503.42
2019-02-18T01:50:44.390Z,101503.42
2019-02-18T01:51:15.830Z,101497.55
2019-02-18T01:51:47.173Z,101497.55
2019-02-18T01:52:18.588Z,101502.09
2019-02-18T01:52:50.062Z,101502.09
2019-02-18T01:53:21.533Z,101497.13
2019-02-18T01:53:53.042Z,101497.13
2019-02-18T01:54:24.420Z,101502.56
2019-02-18T01:54:55.676Z,101497.99
2019-02-18T01:55:26.973Z,101488.85
2019-02-18T01:55:58.495Z,101499.03
2019-02-18T01:56:29.797Z,101481.48
2019-02-18T01:57:01.147Z,101481.48
2019-02-18T01:57:32.390Z,101496.72
2019-02-18T01:58:03.716Z,101503.56
2019-02-18T01:58:35.061Z,101503.56
2019-02-18T01:59:07.383Z,101491.09
2019-02-18T01:59:38.718Z,101503.30
2019-02-18T02:00:13.239Z,101503.30
2019-02-18T02:00:44.478Z,101497.93
2019-02-18T02:01:15.832Z,101497.93
2019-02-18T02:01:47.069Z,101496.19
2019-02-18T02:02:18.495Z,101496.19
2019-02-18T02:02:49.830Z,101493.02
2019-02-18T02:03:21.122Z,101493.02
2019-02-18T02:03:52.389Z,101488.72
2019-02-18T02:04:23.755Z,101497.73
2019-02-18T02:04:55.131Z,101497.73
2019-02-18T02:05:26.575Z,101476.97
2019-02-18T02:05:57.949Z,101476.97
2019-02-18T02:06:29.366Z,101497.30
2019-02-18T02:07:00.802Z,101477.75
2019-02-18T02:07:32.580Z,101494.45
2019-02-18T02:08:04.180Z,101490.16
2019-02-18T02:08:35.538Z,101475.61
2019-02-18T02:09:08.804Z,101475.61
2019-02-18T02:09:40.333Z,101494.36
2019-02-18T02:10:14.107Z,101499.40
2019-02-18T02:10:45.464Z,101493.69
2019-02-18T02:11:16.844Z,101493.69
2019-02-18T02:11:48.153Z,101493.19
2019-02-18T02:12:19.545Z,101489.28
2019-02-18T02:12:52.686Z,101468.77
2019-02-18T02:13:27.717Z,101468.77
2019-02-18T02:13:58.948Z,101485.05
2019-02-18T02:14:30.345Z,101468.40
2019-02-18T02:15:03.149Z,101486.65
2019-02-18T02:15:34.522Z,101485.19
2019-02-18T02:16:07.607Z,101473.00
2019-02-18T02:16:38.944Z,101473.00
2019-02-18T02:17:10.535Z,101471.47
2019-02-18T02:17:41.937Z,101485.64
2019-02-18T02:18:13.453Z,101485.64
2019-02-18T02:18:44.924Z,101488.38
2019-02-18T02:19:16.363Z,101460.15
2019-02-18T02:19:47.843Z,101489.67
2019-02-18T02:20:19.231Z,101487.48
2019-02-18T02:20:50.487Z,101487.48
2019-02-18T02:21:21.847Z,101488.27
2019-02-18T02:21:53.199Z,101484.47
2019-02-18T02:22:24.545Z,101484.47
2019-02-18T02:22:55.946Z,101474.50
2019-02-18T02:23:27.286Z,101487.37
2019-02-18T02:23:58.628Z,101485.10
2019-02-18T02:24:29.988Z,101486.91
2019-02-18T02:25:01.291Z,101479.10
2019-02-18T02:25:32.644Z,101479.10
2019-02-18T02:26:03.962Z,101458.05
2019-02-18T02:26:35.447Z,101482.00
2019-02-18T02:27:06.723Z,101463.38
2019-02-18T02:27:39.091Z,101463.38
2019-02-18T02:28:10.507Z,101481.86
2019-02-18T02:28:41.907Z,101470.78
2019-02-18T02:29:13.386Z,101473.78
2019-02-18T02:29:44.645Z,101473.78
2019-02-18T02:30:16.020Z,101470.84
2019-02-18T02:30:47.246Z,101470.84
2019-02-18T02:31:18.637Z,101470.79
2019-02-18T02:31:49.919Z,101470.79
2019-02-18T02:32:21.249Z,101467.91
2019-02-18T02:32:53.617Z,101473.80
2019-02-18T02:33:25.018Z,101479.73
2019-02-18T02:33:56.275Z,101479.73
2019-02-18T02:34:27.680Z,101474.16
2019-02-18T02:34:59.028Z,101471.78
2019-02-18T02:35:31.342Z,101478.09
2019-02-18T02:36:02.583Z,101478.09
2019-02-18T02:36:33.921Z,101477.30
2019-02-18T02:37:05.295Z,101477.30
2019-02-18T02:37:36.731Z,101459.34
2019-02-18T02:38:08.320Z,101471.09
2019-02-18T02:38:39.689Z,101453.75
2019-02-18T02:39:11.020Z,101456.12
2019-02-18T02:39:42.308Z,101473.36
2019-02-18T02:40:13.824Z,101473.36
2019-02-18T02:40:45.243Z,101468.88
2019-02-18T02:41:16.559Z,101468.88
2019-02-18T02:41:47.981Z,101470.98
2019-02-18T02:42:19.278Z,101466.96
2019-02-18T02:42:50.644Z,101466.96
2019-02-18T02:43:21.961Z,101469.84
2019-02-18T02:43:54.402Z,101450.76
2019-02-18T02:44:25.732Z,101469.39
2019-02-18T02:44:57.070Z,101469.39
2019-02-18T02:45:28.376Z,101470.46
2019-02-18T02:45:59.658Z,101469.66
2019-02-18T02:46:32.044Z,101469.66
2019-02-18T02:47:03.341Z,101467.79
2019-02-18T02:47:34.725Z,101467.79
2019-02-18T02:48:06.117Z,101470.06
2019-02-18T02:48:37.475Z,101470.06
2019-02-18T02:49:08.736Z,101467.79
2019-02-18T02:49:40.256Z,101447.34
2019-02-18T02:50:11.588Z,101447.34
2019-02-18T02:50:42.873Z,101467.19
2019-02-18T02:51:14.174Z,101467.19
2019-02-18T02:51:45.539Z,101461.81
2019-02-18T02:52:16.867Z,101463.81
2019-02-18T02:52:48.169Z,101451.98
2019-02-18T02:54:12.827Z,101467.03
2019-02-18T02:54:45.611Z,101467.94
2019-02-18T02:55:16.996Z,101451.09
2019-02-18T02:55:48.321Z,101451.09
2019-02-18T02:56:19.852Z,101464.23
2019-02-18T02:56:51.251Z,101460.64
2019-02-18T02:57:22.493Z,101460.64
2019-02-18T02:57:53.796Z,101457.53
2019-02-18T02:58:25.458Z,101457.53
2019-02-18T02:58:56.808Z,101463.23
2019-02-18T02:59:28.290Z,101463.23
2019-02-18T02:59:59.662Z,101458.83
2019-02-18T03:00:31.353Z,101457.30
2019-02-18T03:01:02.762Z,101457.03
2019-02-18T03:01:34.516Z,101457.03
2019-02-18T03:02:07.845Z,101471.66
2019-02-18T03:02:39.228Z,101471.66
2019-02-18T03:03:10.667Z,101469.68
2019-02-18T03:03:42.088Z,101456.52
2019-02-18T03:04:13.473Z,101469.28
2019-02-18T03:04:45.050Z,101469.28
2019-02-18T03:05:16.536Z,101467.87
2019-02-18T03:05:47.954Z,101471.09
2019-02-18T03:06:19.410Z,101471.42
2019-02-18T03:06:50.848Z,101471.71
2019-02-18T03:07:22.067Z,101471.71
2019-02-18T03:07:53.422Z,101470.30
2019-02-18T03:08:24.951Z,101470.30
2019-02-18T03:08:56.496Z,101471.71
2019-02-18T03:09:27.744Z,101471.71
2019-02-18T03:09:59.162Z,101472.50
2019-02-18T03:10:30.479Z,101472.39
2019-02-18T03:11:01.931Z,101452.22
2019-02-18T03:11:33.276Z,101463.81
2019-02-18T03:12:04.677Z,101463.81
2019-02-18T03:12:36.018Z,101457.55
2019-02-18T03:13:07.339Z,101451.05
2019-02-18T03:13:38.563Z,101467.08
2019-02-18T03:14:09.933Z,101467.08
2019-02-18T03:14:41.150Z,101433.19
2019-02-18T03:15:14.871Z,101466.45
2019-02-18T03:15:46.206Z,101464.36
2019-02-18T03:16:17.675Z,101450.23
2019-02-18T03:16:49.170Z,101474.55
2019-02-18T03:17:20.629Z,101474.55
2019-02-18T03:17:52.068Z,101466.56
2019-02-18T03:18:23.431Z,101453.58
2019-02-18T03:18:54.787Z,101453.58
2019-02-18T03:19:26.234Z,101458.48
2019-02-18T03:19:57.681Z,101449.39
2019-02-18T03:20:29.011Z,101471.66
2019-02-18T03:21:00.430Z,101467.59
2019-02-18T03:21:31.676Z,101467.59
2019-02-18T03:22:03.028Z,101469.58
2019-02-18T03:22:34.298Z,101468.61
2019-02-18T03:23:05.580Z,101452.12
2019-02-18T03:23:36.936Z,101452.12
2019-02-18T03:24:08.358Z,101470.18
2019-02-18T03:25:01.878Z,101470.18
2019-02-18T03:25:33.229Z,101472.95
2019-02-18T03:26:04.587Z,101468.78
2019-02-18T03:26:35.875Z,101468.78
2019-02-18T03:27:07.293Z,101464.77
2019-02-18T03:27:38.669Z,101455.62
2019-02-18T03:28:21.346Z,101464.59
2019-02-18T03:29:07.425Z,101464.70
2019-02-18T03:29:53.405Z,101476.02
2019-02-18T03:30:54.096Z,101476.02
2019-02-18T03:31:26.626Z,101467.87
2019-02-18T03:31:58.040Z,101467.87
2019-02-18T03:32:29.327Z,101466.41
2019-02-18T03:33:00.703Z,101467.53
2019-02-18T03:33:49.484Z,101472.52
2019-02-18T03:34:26.377Z,101472.52
2019-02-18T03:34:57.737Z,101465.84
2019-02-18T03:35:29.064Z,101459.86
2019-02-18T03:36:00.446Z,101454.25
2019-02-18T03:36:31.696Z,101460.13
2019-02-18T03:37:02.992Z,101460.13
2019-02-18T03:37:34.273Z,101448.32
2019-02-18T03:38:05.648Z,101464.66
2019-02-18T03:38:36.988Z,101464.66
2019-02-18T03:39:08.274Z,101455.16
2019-02-18T03:39:39.635Z,101449.67
2019-02-18T03:40:10.950Z,101449.67
2019-02-18T03:40:42.216Z,101445.71
2019-02-18T03:41:13.536Z,101445.71
2019-02-18T03:41:44.907Z,101451.98
2019-02-18T03:42:16.298Z,101451.98
2019-02-18T03:42:47.660Z,101461.77
2019-02-18T03:43:19.012Z,101445.50
2019-02-18T03:43:50.402Z,101442.83
2019-02-18T03:44:21.825Z,101442.83
2019-02-18T03:44:53.140Z,101455.81
2019-02-18T03:45:24.509Z,101455.81
2019-02-18T03:45:55.914Z,101445.21
2019-02-18T03:46:27.281Z,101458.41
2019-02-18T03:46:58.682Z,101458.41
2019-02-18T03:47:30.035Z,101457.91
2019-02-18T03:48:01.295Z,101436.87
2019-02-18T03:48:32.582Z,101462.59
2019-02-18T03:49:03.920Z,101462.02
2019-02-18T03:49:35.159Z,101450.73
2019-02-18T03:50:06.441Z,101448.42
2019-02-18T03:50:37.689Z,101448.42
2019-02-18T03:51:08.944Z,101457.22
2019-02-18T03:51:40.526Z,101457.22
2019-02-18T03:52:11.840Z,101451.70
2019-02-18T03:52:44.208Z,101451.70
2019-02-18T03:53:15.574Z,101459.70
2019-02-18T03:53:46.856Z,101451.20
2019-02-18T03:54:18.202Z,101453.06
2019-02-18T03:54:49.724Z,101453.06
2019-02-18T03:55:21.223Z,101454.58
2019-02-18T03:55:52.621Z,101438.10
2019-02-18T03:56:24.059Z,101450.86
2019-02-18T03:56:55.378Z,101453.97
2019-02-18T03:57:26.732Z,101458.37
2019-02-18T03:57:58.149Z,101458.37
2019-02-18T03:58:29.426Z,101458.77
2019-02-18T03:59:00.735Z,101439.91
2019-02-18T03:59:31.993Z,101439.91
2019-02-18T04:00:07.987Z,101458.16
2019-02-18T04:00:39.231Z,101454.66
2019-02-18T04:01:10.879Z,101437.81
2019-02-18T04:01:42.127Z,101456.56
2019-02-18T04:02:13.431Z,101440.37
2019-02-18T04:02:44.741Z,101436.63
2019-02-18T04:03:16.809Z,101454.25
2019-02-18T04:03:48.049Z,101460.13
2019-02-18T04:04:19.331Z,101452.41
2019-02-18T04:04:50.587Z,101452.41
2019-02-18T04:05:22.035Z,101447.71
2019-02-18T04:05:53.423Z,101449.91
2019-02-18T04:06:24.721Z,101449.91
2019-02-18T04:06:56.201Z,101427.98
2019-02-18T04:07:27.567Z,101427.98
2019-02-18T04:07:58.973Z,101439.35
2019-02-18T04:08:30.196Z,101439.35
2019-02-18T04:09:04.168Z,101428.06
2019-02-18T04:09:36.531Z,101452.91
2019-02-18T04:10:09.706Z,101450.02
2019-02-18T04:10:41.065Z,101447.89
2019-02-18T04:11:12.418Z,101447.89
2019-02-18T04:11:44.046Z,101451.61
2019-02-18T04:12:15.346Z,101445.23
2019-02-18T04:12:46.612Z,101456.74
2019-02-18T04:13:17.908Z,101456.74
2019-02-18T04:13:49.344Z,101448.66
2019-02-18T04:14:20.795Z,101448.66
2019-02-18T04:14:52.050Z,101455.88
2019-02-18T04:15:23.370Z,101455.77
2019-02-18T04:15:54.612Z,101455.77
2019-02-18T04:16:25.986Z,101455.20
2019-02-18T04:16:57.389Z,101450.80
2019-02-18T04:17:28.678Z,101455.09
2019-02-18T04:18:00.010Z,101455.09
2019-02-18T04:18:31.304Z,101436.45
2019-02-18T04:19:03.645Z,101436.45
2019-02-18T04:19:35.014Z,101455.53
2019-02-18T04:20:06.361Z,101455.53
2019-02-18T04:20:37.589Z,101439.01
2019-02-18T04:21:09.098Z,101435.11
2019-02-18T04:21:40.409Z,101457.18
2019-02-18T04:22:11.724Z,101433.44
2019-02-18T04:22:43.028Z,101454.18
2019-02-18T04:23:14.394Z,101456.78
2019-02-18T04:23:45.630Z,101456.49
2019-02-18T04:24:17.973Z,101455.59
2019-02-18T04:24:49.320Z,101455.48
2019-02-18T04:25:20.721Z,101455.48
2019-02-18T04:25:52.045Z,101459.98
2019-02-18T04:26:23.341Z,101459.98
2019-02-18T04:26:54.682Z,101460.45
2019-02-18T04:27:25.995Z,101456.09
2019-02-18T04:27:57.341Z,101459.98
2019-02-18T04:28:28.683Z,101453.71
2019-02-18T04:29:00.053Z,101453.71
2019-02-18T04:29:31.456Z,101454.39
2019-02-18T04:30:06.168Z,101454.39
2019-02-18T04:30:37.456Z,101453.42
2019-02-18T04:31:08.796Z,101458.59
2019-02-18T04:31:40.180Z,101458.59
2019-02-18T04:32:11.510Z,101454.20
2019-02-18T04:32:42.784Z,101451.72
2019-02-18T04:33:14.080Z,101457.02
2019-02-18T04:33:45.416Z,101457.02
2019-02-18T04:34:16.818Z,101456.80
2019-02-18T04:34:48.084Z,101456.80
2019-02-18T04:35:19.418Z,101433.17
2019-02-18T04:35:50.770Z,101446.94
2019-02-18T04:36:21.997Z,101446.94
2019-02-18T04:36:53.268Z,101455.13
2019-02-18T04:37:24.535Z,101445.55
2019-02-18T04:37:55.894Z,101455.94
2019-02-18T04:38:27.193Z,101455.94
2019-02-18T04:38:58.529Z,101459.41
2019-02-18T04:39:29.839Z,101453.34
2019-02-18T04:40:01.208Z,101453.34
2019-02-18T04:40:32.640Z,101451.75
2019-02-18T04:41:04.018Z,101448.54
2019-02-18T04:41:35.376Z,101454.53
2019-02-18T04:42:06.696Z,101455.25
2019-02-18T04:42:37.986Z,101455.93
2019-02-18T04:43:09.301Z,101455.93
2019-02-18T04:43:42.140Z,101456.33
2019-02-18T04:44:13.653Z,101453.55
2019-02-18T04:44:44.924Z,101453.55
2019-02-18T04:45:16.461Z,101460.23
2019-02-18T04:45:47.808Z,101460.23
2019-02-18T04:46:19.135Z,101449.56
2019-02-18T04:46:50.448Z,101452.66
2019-02-18T04:47:21.946Z,101458.13
2019-02-18T04:47:53.278Z,101458.13
2019-02-18T04:48:25.654Z,101449.86
2019-02-18T04:48:57.004Z,101449.86
2019-02-18T04:49:28.376Z,101450.55
2019-02-18T04:49:59.614Z,101451.06
2019-02-18T04:50:31.041Z,101451.06
2019-02-18T04:51:02.402Z,101448.47
2019-02-18T04:51:33.697Z,101448.47
2019-02-18T04:52:04.933Z,101452.83
2019-02-18T04:52:36.255Z,101452.25
2019-02-18T04:53:07.469Z,101433.80
2019-02-18T04:53:38.791Z,101445.97
2019-02-18T04:54:10.007Z,101445.97
2019-02-18T04:54:41.321Z,101452.45
2019-02-18T04:55:12.682Z,101451.55
2019-02-18T04:55:44.125Z,101451.84
2019-02-18T04:56:15.470Z,101451.84
2019-02-18T04:56:46.902Z,101427.40
2019-02-18T04:57:18.367Z,101458.02
2019-02-18T04:57:49.813Z,101457.32
2019-02-18T04:58:21.164Z,101457.32
2019-02-18T04:58:52.473Z,101458.62
2019-02-18T04:59:23.859Z,101456.84
2019-02-18T04:59:55.248Z,101456.23
2019-02-18T05:00:26.658Z,101455.44
2019-02-18T05:00:58.034Z,101456.84
2019-02-18T05:01:29.324Z,101459.12
2019-02-18T05:02:00.685Z,101455.74
2019-02-18T05:02:32.046Z,101456.64
2019-02-18T05:03:03.253Z,101454.45
2019-02-18T05:03:34.576Z,101453.27
2019-02-18T05:04:05.798Z,101452.36
2019-02-18T05:04:37.104Z,101450.34
2019-02-18T05:05:09.273Z,101450.34
2019-02-18T05:05:40.930Z,101442.96
2019-02-18T05:06:12.324Z,101442.96
2019-02-18T05:06:43.716Z,101453.66
2019-02-18T05:07:15.043Z,101448.75
2019-02-18T05:07:46.413Z,101449.97
2019-02-18T05:08:17.662Z,101446.95
2019-02-18T05:08:48.955Z,101445.37
2019-02-18T05:09:20.299Z,101440.97
2019-02-18T05:09:51.662Z,101440.97
2019-02-18T05:10:22.999Z,101441.59
2019-02-18T05:10:54.273Z,101433.79
2019-02-18T05:11:25.546Z,101433.79
2019-02-18T05:11:56.840Z,101442.45
2019-02-18T05:12:28.107Z,101446.77
2019-02-18T05:12:59.391Z,101444.05
2019-02-18T05:13:30.788Z,101447.08
2019-02-18T05:14:02.088Z,101447.08
2019-02-18T05:14:33.435Z,101448.38
2019-02-18T05:15:06.700Z,101447.47
2019-02-18T05:15:40.195Z,101447.47
2019-02-18T05:16:11.352Z,101443.47
2019-02-18T05:16:42.679Z,101446.66
2019-02-18T05:17:13.988Z,101446.66
2019-02-18T05:17:45.492Z,101446.98
2019-02-18T05:18:16.749Z,101443.87
2019-02-18T05:18:48.125Z,101443.87
2019-02-18T05:19:19.448Z,101448.36
2019-02-18T05:19:50.840Z,101451.33
2019-02-18T05:20:22.069Z,101451.33
2019-02-18T05:20:53.416Z,101447.64
2019-02-18T05:21:24.906Z,101448.14
2019-02-18T05:21:56.154Z,101447.05
2019-02-18T05:22:27.386Z,101447.05
2019-02-18T05:22:58.646Z,101448.96
2019-02-18T05:23:29.910Z,101447.34
2019-02-18T05:24:01.259Z,101447.86
2019-02-18T05:24:32.506Z,101441.36
2019-02-18T05:25:07.213Z,101443.78
2019-02-18T05:25:38.562Z,101443.78
2019-02-18T05:26:09.859Z,101444.88
2019-02-18T05:26:41.315Z,101443.19
2019-02-18T05:27:12.717Z,101444.95
2019-02-18T05:27:44.107Z,101444.95
2019-02-18T05:28:15.431Z,101441.69
2019-02-18T05:28:46.823Z,101447.77
2019-02-18T05:29:18.071Z,101436.27
2019-02-18T05:29:49.458Z,101445.86
2019-02-18T05:30:20.761Z,101441.97
2019-02-18T05:30:52.066Z,101442.36
2019-02-18T05:31:23.444Z,101442.17
2019-02-18T05:31:54.756Z,101439.58
2019-02-18T05:32:25.962Z,101442.56
2019-02-18T05:32:57.358Z,101438.00
2019-02-18T05:33:28.782Z,101442.87
2019-02-18T05:34:00.228Z,101447.08
2019-02-18T05:34:31.543Z,101437.91
2019-02-18T05:35:03.052Z,101437.91
2019-02-18T05:35:34.298Z,101441.95
2019-02-18T05:36:05.630Z,101446.24
2019-02-18T05:36:36.882Z,101443.57
2019-02-18T05:37:08.255Z,101445.38
2019-02-18T05:37:39.675Z,101443.97
2019-02-18T05:38:11.236Z,101442.28
2019-02-18T05:38:42.621Z,101442.28
2019-02-18T05:39:17.976Z,101442.78
2019-02-18T05:39:47.157Z,101447.55
2019-02-18T05:40:18.477Z,101442.78
2019-02-18T05:40:49.950Z,101449.55
2019-02-18T05:41:21.290Z,101442.16
2019-02-18T05:41:52.557Z,101444.25
2019-02-18T05:42:23.900Z,101443.45
2019-02-18T05:42:55.289Z,101445.55
2019-02-18T05:43:26.658Z,101444.17
2019-02-18T05:43:58.025Z,101439.66
2019-02-18T05:44:29.375Z,101439.66
2019-02-18T05:45:00.636Z,101445.35
2019-02-18T05:45:31.976Z,101443.08
2019-02-18T05:46:03.250Z,101442.06
2019-02-18T05:46:34.547Z,101436.88
2019-02-18T05:47:05.932Z,101437.87
2019-02-18T05:47:37.349Z,101440.45
2019-02-18T05:48:08.712Z,101438.26
2019-02-18T05:48:40.109Z,101442.66
2019-02-18T05:49:11.607Z,101436.56
2019-02-18T05:49:42.950Z,101426.80
2019-02-18T05:50:14.273Z,101426.80
2019-02-18T05:50:45.597Z,101438.58
2019-02-18T05:51:16.848Z,101440.16
2019-02-18T05:51:48.277Z,101444.94
2019-02-18T05:52:19.613Z,101442.74
2019-02-18T05:52:50.885Z,101447.42
2019-02-18T05:53:22.141Z,101444.63
2019-02-18T05:53:53.437Z,101442.35
2019-02-18T05:54:24.645Z,101442.35
2019-02-18T05:54:55.970Z,101445.42
2019-02-18T05:55:27.332Z,101446.05
2019-02-18T05:55:58.688Z,101446.04
2019-02-18T05:56:30.131Z,101446.04
2019-02-18T05:57:02.611Z,101444.73
2019-02-18T05:57:33.984Z,101444.73
2019-02-18T05:58:05.307Z,101447.73
2019-02-18T05:58:36.687Z,101453.34
2019-02-18T05:59:08.095Z,101453.34
2019-02-18T05:59:39.339Z,101451.34
2019-02-18T06:00:11.536Z,101454.91
2019-02-18T06:00:42.943Z,101455.92
2019-02-18T06:01:14.915Z,101455.02
2019-02-18T06:01:46.196Z,101455.41
2019-02-18T06:02:19.483Z,101452.43
2019-02-18T06:02:50.732Z,101441.77